Time;durP1;ratioP1;P1;durP2;ratioP2;P2;SDS_P1;SDS_P2;PMS_P1;PMS_P2;Temp;Humidity;BMP_temperature;BMP_pressure;BME280_temperature;BME280_humidity;BME280_pressure;Samples;Min_cycle;Max_cycle;Signal;HPM_P1;HPM_P2
2022/02/06 00:01:02;;;;;;;8.63;3.53;;;;;;;;;;5032200;28;20027;-82
2022/02/06 00:03:31;;;;;;;10.10;4.40;;;;;;;;;;5034028;28;20025;-81
2022/02/06 00:05:57;;;;;;;9.00;3.65;;;;;;;;;;5034568;28;20051;-81
2022/02/06 00:08:23;;;;;;;9.43;3.90;;;;;;;;;;5033275;28;20044;-82
2022/02/06 00:10:49;;;;;;;7.63;3.83;;;;;;;;;;5049654;28;20025;-81
2022/02/06 00:13:16;;;;;;;11.10;3.80;;;;;;;;;;5048879;28;20026;-81
2022/02/06 00:15:42;;;;;;;7.65;4.05;;;;;;;;;;5032139;28;20112;-81
2022/02/06 00:18:08;;;;;;;8.27;3.92;;;;;;;;;;5049010;28;20107;-81
2022/02/06 00:20:45;;;;;;;7.32;3.60;;;;;;;;;;5056495;28;20484;-81
2022/02/06 00:23:13;;;;;;;7.82;3.63;;;;;;;;;;5030711;28;20014;-80
2022/02/06 00:31:09;;;;;;;7.55;3.30;;;;;;;;;;5059630;28;20028;-82
2022/02/06 00:33:48;;;;;;;6.07;3.47;;;;;;;;;;5067605;28;20025;-80
2022/02/06 00:39:06;;;;;;;8.32;4.10;;;;;;;;;;5026745;28;20040;-81
2022/02/06 00:41:36;;;;;;;7.85;3.72;;;;;;;;;;5011202;28;20022;-81
2022/02/06 00:44:04;;;;;;;5.22;3.15;;;;;;;;;;5010229;28;20505;-81
2022/02/06 00:46:37;;;;;;;6.43;3.30;;;;;;;;;;5025263;28;20022;-81
2022/02/06 00:49:14;;;;;;;6.68;3.33;;;;;;;;;;5030598;28;20022;-81
2022/02/06 00:52:31;;;;;;;4.90;2.92;;;;;;;;;;5031581;28;20033;-81
2022/02/06 00:54:27;;;;;;;6.55;3.03;;;;;;;;;;5039025;28;20610;-80
2022/02/06 00:56:53;;;;;;;6.05;3.15;;;;;;;;;;5032129;28;20030;-81
2022/02/06 00:59:22;;;;;;;6.93;2.92;;;;;;;;;;5051191;28;20030;-82
2022/02/06 01:01:49;;;;;;;5.10;2.42;;;;;;;;;;5020852;28;20017;-81
2022/02/06 01:04:15;;;;;;;5.75;2.80;;;;;;;;;;5069124;28;20630;-82
2022/02/06 01:06:41;;;;;;;6.90;2.70;;;;;;;;;;5069871;28;20028;-81
2022/02/06 01:09:08;;;;;;;5.60;2.80;;;;;;;;;;5051194;28;20029;-81
2022/02/06 01:11:36;;;;;;;5.00;2.33;;;;;;;;;;5030524;28;20029;-82
2022/02/06 01:14:19;;;;;;;4.75;2.40;;;;;;;;;;5031009;28;20508;-81
2022/02/06 01:17:02;;;;;;;6.32;2.70;;;;;;;;;;5030953;28;20048;-81
2022/02/06 01:19:38;;;;;;;7.10;2.30;;;;;;;;;;5042052;28;20017;-81
2022/02/06 01:22:08;;;;;;;4.60;2.45;;;;;;;;;;5030170;28;20021;-81
2022/02/06 01:27:12;;;;;;;5.07;2.20;;;;;;;;;;5048172;28;20033;-81
2022/02/06 01:29:49;;;;;;;4.53;2.42;;;;;;;;;;5062076;28;20013;-81
2022/02/06 01:32:20;;;;;;;4.82;2.08;;;;;;;;;;5049783;28;20511;-82
2022/02/06 01:35:00;;;;;;;4.78;2.10;;;;;;;;;;5066212;28;20029;-82
2022/02/06 01:37:39;;;;;;;4.63;1.98;;;;;;;;;;5066180;28;20105;-82
2022/02/06 01:40:13;;;;;;;5.68;2.60;;;;;;;;;;5056789;28;20496;-82
2022/02/06 01:42:57;;;;;;;4.47;1.95;;;;;;;;;;5047136;28;20038;-82
2022/02/06 02:13:15;;;;;;;6.25;3.28;;;;;;;;;;5031052;28;20049;-81
2022/02/06 02:47:47;;;;;;;2.67;1.25;;;;;;;;;;5049810;28;20029;-82
2022/02/06 02:50:18;;;;;;;6.18;1.75;;;;;;;;;;5035977;28;20056;-82
2022/02/06 02:53:01;;;;;;;4.50;1.70;;;;;;;;;;5068141;28;20032;-81
2022/02/06 03:00:48;;;;;;;4.13;1.67;;;;;;;;;;5056924;28;20111;-80
2022/02/06 03:03:19;;;;;;;4.38;1.38;;;;;;;;;;5067629;28;20032;-80
2022/02/06 03:05:49;;;;;;;4.03;1.35;;;;;;;;;;5049566;28;20129;-80
2022/02/06 03:08:15;;;;;;;3.70;1.60;;;;;;;;;;5030905;28;20052;-81
2022/02/06 03:10:43;;;;;;;4.13;1.45;;;;;;;;;;5031422;28;20021;-79
2022/02/06 03:13:16;;;;;;;3.15;1.30;;;;;;;;;;5049747;28;20006;-81
2022/02/06 03:16:01;;;;;;;2.92;1.27;;;;;;;;;;5032367;28;20030;-81
2022/02/06 03:18:31;;;;;;;4.22;1.40;;;;;;;;;;5032963;28;20040;-81
2022/02/06 03:21:01;;;;;;;2.53;1.10;;;;;;;;;;5060579;28;20048;-81
2022/02/06 03:23:28;;;;;;;4.43;1.38;;;;;;;;;;5073168;28;20021;-81
2022/02/06 03:25:55;;;;;;;3.83;1.52;;;;;;;;;;5070533;28;20017;-81
2022/02/06 03:28:22;;;;;;;4.28;1.40;;;;;;;;;;5069817;28;20051;-81
2022/02/06 03:30:49;;;;;;;2.83;1.20;;;;;;;;;;5061463;28;20036;-81
2022/02/06 03:33:15;;;;;;;2.75;1.17;;;;;;;;;;5031423;28;20053;-81
2022/02/06 03:35:42;;;;;;;4.75;1.20;;;;;;;;;;5049745;28;20026;-81
2022/02/06 03:38:10;;;;;;;2.88;1.02;;;;;;;;;;5031692;28;20113;-81
2022/02/06 03:40:47;;;;;;;3.22;1.20;;;;;;;;;;5054225;28;20024;-81
2022/02/06 03:43:26;;;;;;;3.30;1.25;;;;;;;;;;5066203;28;20504;-80
2022/02/06 03:46:01;;;;;;;4.55;1.38;;;;;;;;;;5031789;28;20568;-80
2022/02/06 03:48:43;;;;;;;3.78;1.38;;;;;;;;;;5030809;28;20029;-81
2022/02/06 03:51:17;;;;;;;2.58;1.10;;;;;;;;;;5051201;28;20020;-81
2022/02/06 03:53:45;;;;;;;3.83;1.20;;;;;;;;;;5032209;28;20093;-81
2022/02/06 03:56:15;;;;;;;3.65;1.40;;;;;;;;;;5030856;28;20045;-81
2022/02/06 03:58:42;;;;;;;3.80;1.20;;;;;;;;;;5031768;28;20033;-80
2022/02/06 04:01:08;;;;;;;2.92;1.20;;;;;;;;;;5029886;28;20078;-80
2022/02/06 04:03:35;;;;;;;3.30;1.40;;;;;;;;;;5047359;28;20041;-80
2022/02/06 04:06:01;;;;;;;5.30;1.65;;;;;;;;;;5029503;28;20021;-81
2022/02/06 04:08:29;;;;;;;3.72;1.40;;;;;;;;;;5030425;28;20029;-80
2022/02/06 04:10:57;;;;;;;3.25;1.30;;;;;;;;;;5030331;28;20112;-81
2022/02/06 04:13:25;;;;;;;4.20;1.30;;;;;;;;;;5029133;28;20497;-80
2022/02/06 04:16:01;;;;;;;3.78;1.40;;;;;;;;;;5027937;28;20022;-80
2022/02/06 04:21:20;;;;;;;3.60;1.45;;;;;;;;;;4966860;28;20035;-81
2022/02/06 04:23:46;;;;;;;3.63;1.52;;;;;;;;;;4951106;29;20039;-80
2022/02/06 04:26:12;;;;;;;3.17;1.27;;;;;;;;;;4966945;29;20051;-80
2022/02/06 04:28:42;;;;;;;3.85;1.50;;;;;;;;;;4967334;29;20031;-80
2022/02/06 04:31:08;;;;;;;3.67;1.30;;;;;;;;;;4965856;29;20051;-80
2022/02/06 04:33:36;;;;;;;5.32;1.77;;;;;;;;;;4964917;29;20396;-82
2022/02/06 04:36:04;;;;;;;3.67;1.33;;;;;;;;;;4966189;29;20083;-80
2022/02/06 04:38:49;;;;;;;7.30;2.08;;;;;;;;;;4950545;29;20628;-80
2022/02/06 04:44:34;;;;;;;3.60;1.30;;;;;;;;;;4948736;29;20047;-80
2022/02/06 05:12:35;;;;;;;2.95;1.35;;;;;;;;;;5026769;28;20080;-80
2022/02/06 05:25:26;;;;;;;3.97;1.40;;;;;;;;;;5065732;28;20025;-81
2022/02/06 05:30:31;;;;;;;3.20;1.20;;;;;;;;;;5039619;28;20065;-81
2022/02/06 05:32:59;;;;;;;3.45;1.17;;;;;;;;;;5040261;28;20022;-81
2022/02/06 05:35:27;;;;;;;4.68;1.50;;;;;;;;;;5049025;28;20021;-79
2022/02/06 05:37:53;;;;;;;5.68;2.10;;;;;;;;;;5059531;28;20018;-81
2022/02/06 05:40:19;;;;;;;5.60;1.83;;;;;;;;;;5048847;28;20024;-81
2022/02/06 05:42:45;;;;;;;8.00;1.92;;;;;;;;;;5061878;28;20052;-80
2022/02/06 05:45:12;;;;;;;3.70;1.60;;;;;;;;;;5039026;28;20068;-81
2022/02/06 05:47:41;;;;;;;5.20;1.58;;;;;;;;;;5027386;28;20022;-80
2022/02/06 05:50:08;;;;;;;5.07;2.05;;;;;;;;;;5044458;28;20029;-82
2022/02/06 05:52:34;;;;;;;4.32;1.63;;;;;;;;;;5043633;28;20033;-80
2022/02/06 05:55:01;;;;;;;3.67;1.40;;;;;;;;;;5029839;28;20037;-81
2022/02/06 05:57:27;;;;;;;3.88;1.40;;;;;;;;;;5063060;28;20028;-81
2022/02/06 05:59:53;;;;;;;3.65;1.27;;;;;;;;;;5059590;28;20021;-82
2022/02/06 06:02:19;;;;;;;5.45;2.72;;;;;;;;;;5041507;28;20109;-81
2022/02/06 06:04:48;;;;;;;3.97;1.30;;;;;;;;;;5042187;28;20036;-81
2022/02/06 06:07:14;;;;;;;2.92;1.13;;;;;;;;;;5054562;28;20033;-80
2022/02/06 06:09:40;;;;;;;3.90;1.40;;;;;;;;;;5023691;28;20025;-81
2022/02/06 06:12:07;;;;;;;4.75;1.23;;;;;;;;;;5024654;28;20101;-82
2022/02/06 06:14:33;;;;;;;6.90;1.80;;;;;;;;;;5041208;28;20029;-80
2022/02/06 06:16:59;;;;;;;3.53;1.40;;;;;;;;;;5045667;28;20485;-80
2022/02/06 06:19:26;;;;;;;6.70;1.15;;;;;;;;;;5061352;28;20043;-80
2022/02/06 06:21:57;;;;;;;4.88;2.03;;;;;;;;;;5047588;28;20045;-81
2022/02/06 06:24:24;;;;;;;3.35;1.70;;;;;;;;;;5041541;28;20018;-81
2022/02/06 06:26:50;;;;;;;5.07;1.33;;;;;;;;;;5024026;28;20048;-80
2022/02/06 06:29:16;;;;;;;6.18;1.40;;;;;;;;;;5029946;28;20079;-80
2022/02/06 06:31:43;;;;;;;4.63;1.85;;;;;;;;;;5046336;28;20033;-81
2022/02/06 06:34:09;;;;;;;5.63;1.88;;;;;;;;;;5046428;28;20075;-81
2022/02/06 06:36:36;;;;;;;6.60;1.40;;;;;;;;;;5047694;28;20080;-81
2022/02/06 06:39:04;;;;;;;5.53;1.52;;;;;;;;;;5030359;28;20014;-81
2022/02/06 06:41:30;;;;;;;5.35;1.73;;;;;;;;;;5031234;28;20021;-81
2022/02/06 06:43:59;;;;;;;3.67;1.40;;;;;;;;;;5053133;28;20349;-83
2022/02/06 06:46:25;;;;;;;2.72;1.17;;;;;;;;;;5029135;28;20025;-81
2022/02/06 06:48:51;;;;;;;5.90;1.40;;;;;;;;;;5027897;28;20439;-81
2022/02/06 06:51:17;;;;;;;4.57;1.60;;;;;;;;;;5027462;28;20026;-81
2022/02/06 06:53:47;;;;;;;3.60;1.30;;;;;;;;;;5044984;28;20085;-81
2022/02/06 06:56:26;;;;;;;4.88;1.60;;;;;;;;;;5028429;28;20034;-81
2022/02/06 06:58:52;;;;;;;4.68;1.60;;;;;;;;;;5027426;28;20041;-81
2022/02/06 07:01:44;;;;;;;3.97;1.85;;;;;;;;;;5045327;28;20385;-82
2022/02/06 07:04:10;;;;;;;3.42;1.10;;;;;;;;;;5044919;28;20140;-81
2022/02/06 07:06:36;;;;;;;3.40;1.65;;;;;;;;;;5045090;28;20029;-82
2022/02/06 07:09:02;;;;;;;4.88;2.25;;;;;;;;;;5026481;28;20025;-81
2022/02/06 07:11:28;;;;;;;3.42;1.50;;;;;;;;;;5029390;28;20025;-81
2022/02/06 07:13:56;;;;;;;4.15;1.80;;;;;;;;;;5062848;28;20119;-81
2022/02/06 07:16:22;;;;;;;4.90;2.00;;;;;;;;;;5064407;28;20084;-81
2022/02/06 07:18:48;;;;;;;3.10;1.10;;;;;;;;;;5064778;28;20025;-81
2022/02/06 07:21:14;;;;;;;5.30;1.52;;;;;;;;;;5045366;28;20026;-81
2022/02/06 07:23:40;;;;;;;4.32;1.75;;;;;;;;;;5027154;28;20091;-81
2022/02/06 07:26:13;;;;;;;5.75;2.30;;;;;;;;;;5043492;28;20491;-81
2022/02/06 07:28:47;;;;;;;4.50;2.08;;;;;;;;;;5043934;28;20021;-81
2022/02/06 07:31:15;;;;;;;5.03;2.20;;;;;;;;;;5044105;28;20029;-81
2022/02/06 07:33:41;;;;;;;4.30;1.70;;;;;;;;;;5026752;28;20029;-82
2022/02/06 07:36:07;;;;;;;3.53;1.40;;;;;;;;;;5045066;28;20029;-81
2022/02/06 07:38:33;;;;;;;3.63;1.58;;;;;;;;;;5026281;28;20025;-81
2022/02/06 07:40:59;;;;;;;5.15;1.25;;;;;;;;;;5025717;28;20022;-81
2022/02/06 07:43:25;;;;;;;4.03;1.30;;;;;;;;;;5026860;28;20045;-82
2022/02/06 07:45:51;;;;;;;3.60;1.40;;;;;;;;;;5026928;28;20056;-81
2022/02/06 07:48:18;;;;;;;4.25;1.60;;;;;;;;;;5027421;28;20029;-81
2022/02/06 07:50:45;;;;;;;5.85;2.20;;;;;;;;;;5044085;28;20081;-81
2022/02/06 07:53:11;;;;;;;5.57;2.20;;;;;;;;;;5029103;28;20062;-81
2022/02/06 07:55:37;;;;;;;6.38;1.70;;;;;;;;;;5042599;28;20053;-82
2022/02/06 07:58:04;;;;;;;4.00;1.30;;;;;;;;;;5027485;28;20088;-83
2022/02/06 08:00:30;;;;;;;3.40;1.52;;;;;;;;;;5025786;28;20049;-83
2022/02/06 08:02:57;;;;;;;4.68;1.30;;;;;;;;;;5044445;28;20025;-82
2022/02/06 08:05:25;;;;;;;5.70;2.08;;;;;;;;;;5043657;28;20021;-83
2022/02/06 08:07:51;;;;;;;4.28;1.63;;;;;;;;;;5026924;28;20037;-81
2022/02/06 08:10:19;;;;;;;5.15;1.50;;;;;;;;;;5025706;28;20045;-81
2022/02/06 08:12:53;;;;;;;4.05;1.70;;;;;;;;;;5025593;28;20087;-82
2022/02/06 08:15:20;;;;;;;3.70;1.42;;;;;;;;;;5024781;28;20022;-80
2022/02/06 08:17:46;;;;;;;3.78;1.40;;;;;;;;;;5042986;28;20048;-81
2022/02/06 08:20:13;;;;;;;4.05;1.10;;;;;;;;;;5025548;28;20026;-81
2022/02/06 08:22:41;;;;;;;4.68;1.30;;;;;;;;;;5042860;28;20047;-81
2022/02/06 08:25:08;;;;;;;4.53;1.10;;;;;;;;;;5025218;28;20400;-82
2022/02/06 08:27:34;;;;;;;3.40;1.25;;;;;;;;;;5026357;28;20022;-82
2022/02/06 08:30:00;;;;;;;4.25;1.30;;;;;;;;;;5024743;28;20032;-81
2022/02/06 08:32:27;;;;;;;4.43;1.40;;;;;;;;;;5025530;28;20096;-81
2022/02/06 08:34:54;;;;;;;4.75;1.15;;;;;;;;;;5025989;28;20052;-81
2022/02/06 08:37:20;;;;;;;3.60;1.30;;;;;;;;;;5025769;28;20034;-81
2022/02/06 08:39:49;;;;;;;3.60;1.23;;;;;;;;;;5044784;28;20041;-80
2022/02/06 08:42:15;;;;;;;4.72;1.35;;;;;;;;;;5025728;28;20029;-82
2022/02/06 08:44:43;;;;;;;6.22;2.05;;;;;;;;;;5042657;28;20037;-81
2022/02/06 08:47:10;;;;;;;5.60;1.75;;;;;;;;;;5029962;28;20017;-81
2022/02/06 08:49:38;;;;;;;6.85;1.27;;;;;;;;;;5064353;28;20032;-81
2022/02/06 08:52:07;;;;;;;5.75;1.70;;;;;;;;;;5062093;28;20084;-81
2022/02/06 08:54:34;;;;;;;5.75;2.97;;;;;;;;;;5062020;28;20120;-81
2022/02/06 08:57:06;;;;;;;5.07;1.67;;;;;;;;;;5027075;28;20080;-82
2022/02/06 08:59:36;;;;;;;7.18;1.83;;;;;;;;;;5025743;28;20021;-81
2022/02/06 09:02:03;;;;;;;4.60;1.08;;;;;;;;;;5044190;28;20025;-81
2022/02/06 09:04:29;;;;;;;5.18;1.50;;;;;;;;;;5038777;28;20056;-80
2022/02/06 09:07:00;;;;;;;3.40;1.30;;;;;;;;;;5043860;28;20065;-81
2022/02/06 09:09:26;;;;;;;4.20;1.90;;;;;;;;;;5024938;28;20171;-81
2022/02/06 09:11:53;;;;;;;5.32;2.10;;;;;;;;;;5024847;28;20029;-82
2022/02/06 09:14:21;;;;;;;4.40;1.77;;;;;;;;;;5027687;28;20088;-80
2022/02/06 09:16:48;;;;;;;2.80;1.00;;;;;;;;;;5064183;28;20080;-81
2022/02/06 09:19:14;;;;;;;4.00;1.30;;;;;;;;;;5063229;28;20025;-81
2022/02/06 09:21:41;;;;;;;2.95;1.08;;;;;;;;;;5049764;28;20033;-80
2022/02/06 09:24:07;;;;;;;3.60;1.45;;;;;;;;;;5043613;28;20033;-81
2022/02/06 09:26:34;;;;;;;3.45;1.35;;;;;;;;;;5042422;28;20215;-80
2022/02/06 09:29:00;;;;;;;4.88;1.65;;;;;;;;;;5041798;28;20045;-80
2022/02/06 09:31:27;;;;;;;5.20;2.30;;;;;;;;;;5062555;28;20031;-80
2022/02/06 09:36:20;;;;;;;4.20;1.10;;;;;;;;;;5064040;28;20099;-82
2022/02/06 09:38:46;;;;;;;4.53;1.90;;;;;;;;;;5053993;28;20018;-81
2022/02/06 09:41:13;;;;;;;3.78;1.42;;;;;;;;;;5046555;28;20025;-82
2022/02/06 09:43:40;;;;;;;3.13;1.15;;;;;;;;;;5064740;28;20045;-81
2022/02/06 09:46:12;;;;;;;4.82;1.30;;;;;;;;;;5065665;28;20086;-82
2022/02/06 09:48:38;;;;;;;2.07;0.93;;;;;;;;;;5058416;28;20112;-82
2022/02/06 09:51:07;;;;;;;4.72;1.13;;;;;;;;;;5032803;28;20013;-81
2022/02/06 09:53:35;;;;;;;3.35;1.33;;;;;;;;;;5034722;28;20033;-80
2022/02/06 09:56:07;;;;;;;2.80;1.00;;;;;;;;;;5046748;28;20097;-82
2022/02/06 10:01:03;;;;;;;4.28;1.00;;;;;;;;;;5054627;28;20030;-82
2022/02/06 10:03:31;;;;;;;3.05;1.10;;;;;;;;;;5031195;28;20404;-82
2022/02/06 10:05:59;;;;;;;2.88;1.00;;;;;;;;;;5034216;28;20026;-82
2022/02/06 10:08:32;;;;;;;2.63;0.82;;;;;;;;;;5034720;28;20036;-80
2022/02/06 10:11:03;;;;;;;2.60;0.90;;;;;;;;;;5034969;28;20026;-81
2022/02/06 10:13:34;;;;;;;2.97;0.90;;;;;;;;;;5033582;28;20056;-81
2022/02/06 10:16:00;;;;;;;2.63;0.90;;;;;;;;;;5033691;28;20091;-80
2022/02/06 10:18:28;;;;;;;3.28;1.23;;;;;;;;;;5052668;28;20022;-82
2022/02/06 10:20:57;;;;;;;2.92;1.00;;;;;;;;;;5035902;28;20017;-81
2022/02/06 10:23:34;;;;;;;2.53;0.90;;;;;;;;;;5047535;28;20052;-82
2022/02/06 10:26:09;;;;;;;4.85;1.40;;;;;;;;;;5032582;28;20025;-81
2022/02/06 10:28:43;;;;;;;4.13;1.60;;;;;;;;;;5032010;28;20034;-80
2022/02/06 10:31:09;;;;;;;5.05;1.90;;;;;;;;;;5031319;28;20485;-81
2022/02/06 10:33:48;;;;;;;2.67;0.90;;;;;;;;;;5029570;28;20061;-80
2022/02/06 10:36:19;;;;;;;4.53;1.70;;;;;;;;;;5029724;28;20056;-81
2022/02/06 10:38:46;;;;;;;3.22;1.20;;;;;;;;;;5031374;28;20017;-81
2022/02/06 10:41:17;;;;;;;7.00;2.10;;;;;;;;;;5033094;28;20025;-80
2022/02/06 10:43:56;;;;;;;3.75;1.40;;;;;;;;;;5030516;28;20105;-80
2022/02/06 10:46:23;;;;;;;3.40;1.50;;;;;;;;;;5029636;28;20030;-81
2022/02/06 10:48:53;;;;;;;3.17;1.30;;;;;;;;;;5031251;28;20035;-81
2022/02/06 10:51:39;;;;;;;3.03;1.02;;;;;;;;;;5048602;28;20038;-80
2022/02/06 10:54:06;;;;;;;4.68;1.27;;;;;;;;;;5029778;28;20028;-79
2022/02/06 10:56:32;;;;;;;2.35;0.80;;;;;;;;;;5028320;28;20092;-81
2022/02/06 10:59:03;;;;;;;3.13;0.90;;;;;;;;;;5034860;28;20412;-80
2022/02/06 11:01:31;;;;;;;3.15;1.23;;;;;;;;;;5065684;28;20033;-79
2022/02/06 11:04:25;;;;;;;3.28;0.93;;;;;;;;;;5067688;28;20017;-81
2022/02/06 11:07:06;;;;;;;1.80;0.73;;;;;;;;;;5041821;28;20052;-81
2022/02/06 11:09:32;;;;;;;1.80;0.70;;;;;;;;;;5029803;28;20150;-81
2022/02/06 11:11:59;;;;;;;3.72;1.20;;;;;;;;;;5047838;28;20018;-80
2022/02/06 11:14:26;;;;;;;2.13;0.80;;;;;;;;;;5030240;28;20033;-80
2022/02/06 11:16:55;;;;;;;1.75;0.80;;;;;;;;;;5046705;28;20021;-81
2022/02/06 11:19:21;;;;;;;1.80;0.70;;;;;;;;;;5029824;28;20018;-80
2022/02/06 11:21:48;;;;;;;2.92;0.90;;;;;;;;;;5046359;28;20025;-81
2022/02/06 11:24:21;;;;;;;2.72;0.77;;;;;;;;;;5028804;28;20026;-81
2022/02/06 11:26:48;;;;;;;2.80;0.80;;;;;;;;;;5028898;28;20026;-82
2022/02/06 11:29:14;;;;;;;2.00;0.73;;;;;;;;;;5054555;28;20053;-81
2022/02/06 11:31:43;;;;;;;2.38;0.82;;;;;;;;;;5027783;28;20036;-80
2022/02/06 11:34:17;;;;;;;1.50;0.70;;;;;;;;;;5028701;28;20025;-81
2022/02/06 11:45:37;;;;;;;1.85;0.80;;;;;;;;;;5017324;28;20062;-81
2022/02/06 11:48:07;;;;;;;2.17;0.70;;;;;;;;;;5029980;28;20028;-80
2022/02/06 11:50:34;;;;;;;1.30;0.77;;;;;;;;;;5017887;28;20505;-80
2022/02/06 11:53:04;;;;;;;1.52;0.70;;;;;;;;;;5026663;28;20101;-81
2022/02/06 11:55:36;;;;;;;2.65;0.93;;;;;;;;;;5037305;28;20031;-81
2022/02/06 11:58:23;;;;;;;2.63;0.88;;;;;;;;;;5064995;28;20017;-81
2022/02/06 12:01:08;;;;;;;2.47;0.70;;;;;;;;;;5053431;28;20037;-79
2022/02/06 12:03:51;;;;;;;2.58;0.88;;;;;;;;;;5027465;28;20025;-82
2022/02/06 12:06:18;;;;;;;1.88;0.70;;;;;;;;;;5028048;28;20055;-81
2022/02/06 12:08:45;;;;;;;2.30;0.70;;;;;;;;;;5031407;28;20511;-81
2022/02/06 12:11:14;;;;;;;3.13;0.93;;;;;;;;;;5048588;28;20030;-81
2022/02/06 12:13:42;;;;;;;2.53;0.80;;;;;;;;;;5045177;28;20085;-81
2022/02/06 12:16:08;;;;;;;2.65;0.70;;;;;;;;;;5046464;28;20112;-81
2022/02/06 12:18:36;;;;;;;3.03;0.80;;;;;;;;;;5028876;28;20021;-82
2022/02/06 12:21:14;;;;;;;3.33;0.95;;;;;;;;;;5045980;28;20021;-81
2022/02/06 12:23:40;;;;;;;1.40;0.68;;;;;;;;;;5033643;28;20024;-81
2022/02/06 12:26:29;;;;;;;2.78;0.80;;;;;;;;;;5064770;28;20034;-82
2022/02/06 12:28:59;;;;;;;1.40;0.55;;;;;;;;;;5065155;28;20115;-82
2022/02/06 12:31:31;;;;;;;2.13;1.00;;;;;;;;;;5064474;28;20044;-83
2022/02/06 12:37:09;;;;;;;3.20;1.20;;;;;;;;;;5045685;28;20030;-80
2022/02/06 12:39:36;;;;;;;1.90;0.73;;;;;;;;;;5043000;28;20029;-80
2022/02/06 12:42:03;;;;;;;3.65;1.10;;;;;;;;;;5032775;28;20096;-81
2022/02/06 12:44:30;;;;;;;2.20;0.90;;;;;;;;;;5064231;28;20037;-81
2022/02/06 12:47:01;;;;;;;2.47;1.00;;;;;;;;;;5049503;28;20026;-80
2022/02/06 12:49:29;;;;;;;2.92;1.00;;;;;;;;;;5008230;28;20089;-81
2022/02/06 12:51:58;;;;;;;2.50;0.70;;;;;;;;;;5008680;28;20053;-82
2022/02/06 12:54:28;;;;;;;2.40;0.80;;;;;;;;;;5034661;28;20029;-82
2022/02/06 12:56:58;;;;;;;2.47;0.80;;;;;;;;;;5029754;28;20042;-81
2022/02/06 12:59:25;;;;;;;1.80;0.60;;;;;;;;;;5050974;28;20086;-82
2022/02/06 13:01:54;;;;;;;2.65;0.82;;;;;;;;;;5049136;28;20026;-82
2022/02/06 13:04:23;;;;;;;3.20;0.70;;;;;;;;;;5027524;28;20112;-81
2022/02/06 13:06:55;;;;;;;1.58;0.70;;;;;;;;;;5045554;28;20024;-82
2022/02/06 13:09:24;;;;;;;2.40;0.68;;;;;;;;;;5046269;28;20033;-82
2022/02/06 13:12:00;;;;;;;2.83;0.77;;;;;;;;;;5044297;28;20112;-82
2022/02/06 13:18:01;;;;;;;1.52;0.63;;;;;;;;;;5052275;28;20086;-80
2022/02/06 13:23:09;;;;;;;2.78;0.85;;;;;;;;;;5064206;28;20021;-81
2022/02/06 13:25:51;;;;;;;2.15;0.80;;;;;;;;;;5063687;28;20071;-81
2022/02/06 13:39:09;;;;;;;3.75;1.60;;;;;;;;;;5043808;28;20033;-80
2022/02/06 13:41:35;;;;;;;4.88;2.10;;;;;;;;;;5031547;28;20079;-81
2022/02/06 13:44:02;;;;;;;5.00;2.30;;;;;;;;;;5048442;28;20053;-82
2022/02/06 13:46:33;;;;;;;5.38;2.83;;;;;;;;;;5048449;28;20040;-82
2022/02/06 13:49:00;;;;;;;4.75;2.35;;;;;;;;;;5030321;28;20017;-82
2022/02/06 13:51:28;;;;;;;4.32;2.08;;;;;;;;;;5032456;28;20017;-82
2022/02/06 13:53:55;;;;;;;5.13;1.83;;;;;;;;;;5029211;28;20045;-81
2022/02/06 13:56:21;;;;;;;5.35;2.13;;;;;;;;;;5062801;28;20472;-81
2022/02/06 13:59:02;;;;;;;4.28;1.90;;;;;;;;;;5041621;28;20090;-81
2022/02/06 14:01:42;;;;;;;5.50;2.13;;;;;;;;;;5047830;28;20481;-81
2022/02/06 14:04:30;;;;;;;5.07;2.50;;;;;;;;;;5047080;28;20024;-82
2022/02/06 14:07:05;;;;;;;5.22;2.20;;;;;;;;;;5062125;28;20116;-81
2022/02/06 14:09:45;;;;;;;5.90;2.75;;;;;;;;;;5029734;28;20029;-81
2022/02/06 14:12:16;;;;;;;5.13;2.58;;;;;;;;;;5025960;28;20022;-81
2022/02/06 14:14:53;;;;;;;5.35;2.72;;;;;;;;;;5013448;28;20026;-81
2022/02/06 14:17:23;;;;;;;4.85;2.28;;;;;;;;;;5038714;28;20108;-81
2022/02/06 14:19:50;;;;;;;5.82;2.58;;;;;;;;;;5028420;28;20025;-81
2022/02/06 14:22:37;;;;;;;5.78;2.78;;;;;;;;;;5046777;28;20021;-82
2022/02/06 14:25:05;;;;;;;5.22;2.90;;;;;;;;;;5048849;28;20072;-80
2022/02/06 14:27:45;;;;;;;6.93;3.13;;;;;;;;;;5065420;28;20036;-80
2022/02/06 14:30:15;;;;;;;6.60;3.47;;;;;;;;;;5066682;28;20025;-80
2022/02/06 14:33:00;;;;;;;7.07;3.90;;;;;;;;;;5035036;28;20029;-81
2022/02/06 14:35:46;;;;;;;5.97;2.83;;;;;;;;;;5028880;28;20397;-81
2022/02/06 14:38:22;;;;;;;5.38;2.60;;;;;;;;;;5030224;28;20092;-81
2022/02/06 14:41:40;;;;;;;4.90;2.50;;;;;;;;;;5065162;28;20029;-81
2022/02/06 14:43:36;;;;;;;5.88;2.72;;;;;;;;;;5034991;28;20041;-80
2022/02/06 14:46:02;;;;;;;6.72;2.90;;;;;;;;;;5046328;28;20032;-81
2022/02/06 14:48:29;;;;;;;6.57;3.05;;;;;;;;;;5044898;28;20025;-81
2022/02/06 14:50:55;;;;;;;7.78;3.60;;;;;;;;;;5028729;28;20345;-81
2022/02/06 14:53:22;;;;;;;7.30;4.28;;;;;;;;;;5046119;28;20029;-81
2022/02/06 14:55:50;;;;;;;9.57;4.63;;;;;;;;;;5029260;28;20032;-81
2022/02/06 14:58:16;;;;;;;9.20;4.93;;;;;;;;;;5030153;28;20052;-81
2022/02/06 15:00:42;;;;;;;7.20;4.35;;;;;;;;;;5029850;28;20105;-81
2022/02/06 15:03:11;;;;;;;6.93;4.50;;;;;;;;;;5029166;28;20045;-81
2022/02/06 15:05:38;;;;;;;8.13;4.95;;;;;;;;;;5047945;28;20037;-81
2022/02/06 15:08:04;;;;;;;7.63;4.60;;;;;;;;;;5047005;28;20489;-81
2022/02/06 15:10:32;;;;;;;8.65;4.43;;;;;;;;;;5030435;28;20049;-81
2022/02/06 15:12:58;;;;;;;8.98;5.32;;;;;;;;;;5048160;28;20034;-80
2022/02/06 15:15:32;;;;;;;7.75;5.25;;;;;;;;;;5033811;28;20044;-82
2022/02/06 15:18:02;;;;;;;9.02;5.72;;;;;;;;;;5032203;28;20022;-80
2022/02/06 15:20:29;;;;;;;8.05;5.63;;;;;;;;;;5030755;28;20048;-80
2022/02/06 15:22:55;;;;;;;8.63;5.60;;;;;;;;;;5047309;28;20021;-81
2022/02/06 15:25:21;;;;;;;8.32;4.68;;;;;;;;;;5028545;28;20039;-80
2022/02/06 15:27:47;;;;;;;8.20;4.63;;;;;;;;;;5046051;28;20037;-80
2022/02/06 15:30:13;;;;;;;8.63;5.50;;;;;;;;;;5046270;28;20021;-81
2022/02/06 15:32:39;;;;;;;8.35;5.53;;;;;;;;;;5028286;28;20036;-81
2022/02/06 15:35:06;;;;;;;8.35;5.15;;;;;;;;;;5029482;28;20041;-81
2022/02/06 15:37:32;;;;;;;8.98;5.00;;;;;;;;;;5028310;28;20089;-82
2022/02/06 15:39:59;;;;;;;7.57;4.63;;;;;;;;;;5027246;28;20033;-80
2022/02/06 15:42:25;;;;;;;9.65;6.10;;;;;;;;;;5044835;28;20497;-81
2022/02/06 15:44:51;;;;;;;8.32;5.38;;;;;;;;;;5045662;28;20074;-81
2022/02/06 15:47:18;;;;;;;9.75;6.10;;;;;;;;;;5044000;28;20401;-81
2022/02/06 15:49:44;;;;;;;8.98;6.47;;;;;;;;;;5026699;28;20017;-81
2022/02/06 15:52:11;;;;;;;10.32;6.75;;;;;;;;;;5018342;28;20080;-81
2022/02/06 15:54:38;;;;;;;11.98;6.65;;;;;;;;;;5046016;28;20029;-82
2022/02/06 15:57:05;;;;;;;13.13;7.40;;;;;;;;;;5026719;28;20485;-81
2022/02/06 15:59:31;;;;;;;11.85;6.70;;;;;;;;;;5044749;28;20033;-81
2022/02/06 16:01:57;;;;;;;8.93;6.25;;;;;;;;;;5045666;28;20022;-81
2022/02/06 16:04:23;;;;;;;8.60;5.78;;;;;;;;;;5046504;28;20021;-80
2022/02/06 16:06:52;;;;;;;11.30;6.72;;;;;;;;;;5047582;28;20033;-80
2022/02/06 16:09:26;;;;;;;9.82;7.47;;;;;;;;;;5029853;28;20048;-81
2022/02/06 16:11:53;;;;;;;9.73;5.97;;;;;;;;;;5030837;28;20028;-81
2022/02/06 16:14:19;;;;;;;10.07;6.03;;;;;;;;;;5046849;28;20079;-81
2022/02/06 16:16:45;;;;;;;10.10;6.90;;;;;;;;;;5028246;28;20089;-81
2022/02/06 16:19:14;;;;;;;8.60;5.93;;;;;;;;;;5020355;28;20029;-81
2022/02/06 16:21:42;;;;;;;8.88;5.68;;;;;;;;;;5063166;28;20024;-81
2022/02/06 16:24:08;;;;;;;10.20;5.00;;;;;;;;;;5067510;28;20028;-81
2022/02/06 16:26:35;;;;;;;10.15;5.85;;;;;;;;;;5053125;28;20033;-81
2022/02/06 16:29:02;;;;;;;12.63;8.23;;;;;;;;;;5048498;28;20033;-80
2022/02/06 16:31:28;;;;;;;9.85;5.85;;;;;;;;;;5030302;28;20067;-81
2022/02/06 16:33:55;;;;;;;11.77;6.60;;;;;;;;;;5030035;28;20396;-79
2022/02/06 16:36:22;;;;;;;9.13;5.40;;;;;;;;;;5030330;28;20022;-82
2022/02/06 16:38:49;;;;;;;8.60;5.82;;;;;;;;;;5029432;28;20097;-81
2022/02/06 16:41:15;;;;;;;7.80;5.32;;;;;;;;;;5030966;28;20071;-81
2022/02/06 16:43:41;;;;;;;5.07;2.45;;;;;;;;;;5029661;28;20497;-80
2022/02/06 16:46:07;;;;;;;8.90;5.28;;;;;;;;;;5039915;28;20037;-81
2022/02/06 16:48:34;;;;;;;6.15;3.25;;;;;;;;;;5049184;28;20567;-81
2022/02/06 16:51:00;;;;;;;2.50;0.80;;;;;;;;;;5068085;28;20036;-80
2022/02/06 16:53:27;;;;;;;2.15;0.80;;;;;;;;;;5070797;28;20025;-80
2022/02/06 16:55:55;;;;;;;4.32;1.67;;;;;;;;;;5057908;28;20525;-80
2022/02/06 16:58:21;;;;;;;2.30;1.05;;;;;;;;;;5032134;28;20026;-80
2022/02/06 17:00:49;;;;;;;3.40;0.88;;;;;;;;;;5034114;28;20045;-80
2022/02/06 17:03:15;;;;;;;2.60;0.90;;;;;;;;;;5048961;28;20039;-80
2022/02/06 17:05:41;;;;;;;3.30;1.25;;;;;;;;;;5047599;28;20469;-81
2022/02/06 17:08:07;;;;;;;2.30;1.02;;;;;;;;;;5047671;28;20485;-80
2022/02/06 17:10:34;;;;;;;2.42;0.98;;;;;;;;;;5029916;28;20546;-81
2022/02/06 17:13:00;;;;;;;2.58;0.77;;;;;;;;;;5029308;28;20033;-82
2022/02/06 17:15:27;;;;;;;2.88;1.23;;;;;;;;;;5029036;28;20041;-83
2022/02/06 17:17:53;;;;;;;3.53;0.88;;;;;;;;;;5046344;28;20238;-82
2022/02/06 17:20:23;;;;;;;2.08;0.73;;;;;;;;;;5027749;28;20025;-81
2022/02/06 17:22:49;;;;;;;2.33;0.70;;;;;;;;;;5046312;28;20032;-81
2022/02/06 17:25:15;;;;;;;3.05;0.80;;;;;;;;;;5028672;28;20025;-81
2022/02/06 17:27:42;;;;;;;2.42;0.85;;;;;;;;;;5026553;28;20037;-79
2022/02/06 17:30:08;;;;;;;2.78;0.77;;;;;;;;;;5041957;28;20029;-81